createdAt,value
2022-07-29T00:00:01.110Z,98073.41
2022-07-29T00:03:07.836Z,98079.13
2022-07-29T00:06:10.163Z,98076.66
2022-07-29T00:09:12.063Z,98075.84
2022-07-29T00:12:14.020Z,98076.25
2022-07-29T00:15:15.955Z,98079.91
2022-07-29T00:18:17.910Z,98075.00
2022-07-29T00:21:21.954Z,98079.09
2022-07-29T00:24:24.142Z,98068.41
2022-07-29T00:27:26.915Z,98064.72
2022-07-29T00:30:29.350Z,98069.00
2022-07-29T00:33:31.979Z,98069.00
2022-07-29T00:36:34.289Z,98067.78
2022-07-29T00:39:36.541Z,98070.47
2022-07-29T00:42:45.711Z,98070.25
2022-07-29T00:45:49.006Z,98071.88
2022-07-29T00:48:51.529Z,98060.41
2022-07-29T00:51:54.996Z,98066.91
2022-07-29T00:54:57.909Z,98066.91
2022-07-29T00:58:00.115Z,98063.00
2022-07-29T01:01:04.952Z,98055.63
2022-07-29T01:04:07.829Z,98056.25
2022-07-29T01:07:11.291Z,98052.81
2022-07-29T01:10:18.103Z,98053.00
2022-07-29T01:13:22.138Z,98047.03
2022-07-29T01:16:48.535Z,98054.78
2022-07-29T01:20:08.728Z,98050.69
2022-07-29T01:23:20.311Z,98047.38
2022-07-29T01:26:35.700Z,98038.00
2022-07-29T01:29:47.477Z,98046.59
2022-07-29T01:32:53.950Z,98038.63
2022-07-29T01:36:00.042Z,98040.22
2022-07-29T01:39:33.551Z,98040.59
2022-07-29T01:42:40.460Z,98039.59
2022-07-29T01:46:02.803Z,98042.84
2022-07-29T01:49:12.391Z,98040.59
2022-07-29T01:52:22.029Z,98038.69
2022-07-29T01:55:28.884Z,98040.16
2022-07-29T01:58:33.050Z,98045.84
2022-07-29T02:01:39.633Z,98036.88
2022-07-29T02:04:43.124Z,98030.16
2022-07-29T02:07:48.867Z,98035.91
2022-07-29T02:15:40.063Z,98038.34
2022-07-29T02:18:45.721Z,98026.03
2022-07-29T02:21:50.042Z,98032.94
2022-07-29T02:24:55.166Z,98030.47
2022-07-29T02:28:00.036Z,98035.19
2022-07-29T02:31:04.190Z,98039.50
2022-07-29T02:34:10.466Z,98035.00
2022-07-29T02:37:13.816Z,98046.41
2022-07-29T02:40:17.107Z,98043.59
2022-07-29T02:43:21.226Z,98040.34
2022-07-29T02:46:31.804Z,98038.91
2022-07-29T02:49:42.174Z,98034.00
2022-07-29T02:52:49.387Z,98044.78
2022-07-29T02:56:03.257Z,98047.81
2022-07-29T02:59:11.255Z,98046.00
2022-07-29T03:02:15.882Z,98046.38
2022-07-29T03:05:20.832Z,98059.44
2022-07-29T03:08:26.917Z,98044.78
2022-07-29T03:11:42.440Z,98044.78
2022-07-29T03:14:54.780Z,98050.09
2022-07-29T03:17:59.899Z,98049.25
2022-07-29T03:21:06.084Z,98043.56
2022-07-29T03:24:12.408Z,98047.66
2022-07-29T03:27:15.723Z,98051.34
2022-07-29T03:30:22.340Z,98045.25
2022-07-29T03:33:25.958Z,98039.72
2022-07-29T03:36:28.853Z,98040.00
2022-07-29T03:39:35.023Z,98031.03
2022-07-29T03:42:42.174Z,98041.91
2022-07-29T03:45:44.640Z,98035.13
2022-07-29T03:49:03.321Z,98038.88
2022-07-29T03:52:12.781Z,98040.56
2022-07-29T03:55:17.730Z,98038.94
2022-07-29T03:58:21.579Z,98046.78
2022-07-29T04:01:25.607Z,98042.13
2022-07-29T04:04:35.200Z,98040.50
2022-07-29T04:07:44.640Z,98035.56
2022-07-29T04:10:48.876Z,98041.28
2022-07-29T04:13:51.427Z,98044.75
2022-07-29T04:16:54.603Z,98027.72
2022-07-29T04:20:00.305Z,98032.78
2022-07-29T04:23:06.554Z,98031.00
2022-07-29T04:26:18.099Z,98027.97
2022-07-29T04:29:23.920Z,98013.25
2022-07-29T04:32:29.939Z,98019.06
2022-07-29T04:35:38.555Z,98030.53
2022-07-29T04:38:41.787Z,98016.53
2022-07-29T04:41:44.794Z,98032.84
2022-07-29T04:44:49.093Z,98033.22
2022-07-29T04:47:55.952Z,98036.47
2022-07-29T04:51:02.265Z,98028.44
2022-07-29T04:54:07.792Z,98034.47
2022-07-29T04:57:10.614Z,98038.91
2022-07-29T05:00:13.704Z,98035.09
2022-07-29T05:03:16.430Z,98031.94
2022-07-29T05:06:19.137Z,98037.78
2022-07-29T05:09:21.920Z,98034.31
2022-07-29T05:12:25.908Z,98036.66
2022-07-29T05:15:29.105Z,98041.44
2022-07-29T05:18:31.973Z,98031.09
2022-07-29T05:21:34.764Z,98036.94
2022-07-29T05:24:42.656Z,98040.72
2022-07-29T05:27:45.150Z,98038.38
2022-07-29T05:30:47.716Z,98040.41
2022-07-29T05:33:50.462Z,98037.50
2022-07-29T05:36:53.597Z,98048.81
2022-07-29T05:40:00.917Z,98045.09
2022-07-29T05:43:07.734Z,98040.53
2022-07-29T05:46:10.815Z,98045.31
2022-07-29T05:49:13.543Z,98040.22
2022-07-29T05:52:31.675Z,98044.84
2022-07-29T05:55:34.345Z,98033.44
2022-07-29T05:58:42.203Z,98035.16
2022-07-29T06:01:45.908Z,98036.84
2022-07-29T06:04:51.069Z,98033.00
2022-07-29T06:07:53.819Z,98034.47
2022-07-29T06:10:56.949Z,98024.38
2022-07-29T06:13:59.708Z,98030.19
2022-07-29T06:17:06.077Z,98030.28
2022-07-29T06:20:12.414Z,98034.38
2022-07-29T06:23:14.976Z,98041.06
2022-07-29T06:26:17.875Z,98032.91
2022-07-29T06:29:21.073Z,98042.94
2022-07-29T06:32:30.055Z,98045.66
2022-07-29T06:35:39.013Z,98046.91
2022-07-29T06:38:50.446Z,98045.13
2022-07-29T06:41:57.015Z,98051.03
2022-07-29T06:45:03.034Z,98051.06
2022-07-29T06:48:09.023Z,98050.53
2022-07-29T06:51:15.829Z,98056.19
2022-07-29T06:54:19.773Z,98055.91
2022-07-29T06:57:27.916Z,98053.75
2022-07-29T07:00:31.007Z,98052.88
2022-07-29T07:03:36.636Z,98055.09
2022-07-29T07:06:42.979Z,98045.59
2022-07-29T07:09:45.546Z,98044.03
2022-07-29T07:12:48.465Z,98046.22
2022-07-29T07:15:52.246Z,98036.22
2022-07-29T07:18:58.073Z,98035.91
2022-07-29T07:22:03.758Z,98038.91
2022-07-29T07:25:10.380Z,98040.28
2022-07-29T07:28:15.393Z,98038.50
2022-07-29T07:31:18.406Z,98046.28
2022-07-29T07:34:29.753Z,98044.72
2022-07-29T07:37:36.189Z,98039.53
2022-07-29T07:40:41.681Z,98041.97
2022-07-29T07:43:44.873Z,98047.25
2022-07-29T07:46:47.478Z,98039.25
2022-07-29T07:49:53.481Z,98033.19
2022-07-29T07:53:02.552Z,98043.16
2022-07-29T07:56:11.469Z,98042.59
2022-07-29T07:59:15.410Z,98043.88
2022-07-29T08:02:21.433Z,98046.97
2022-07-29T08:05:24.231Z,98048.69
2022-07-29T08:08:26.929Z,98031.16
2022-07-29T08:11:29.996Z,98035.06
2022-07-29T08:14:41.262Z,98034.31
2022-07-29T08:17:49.217Z,98024.06
2022-07-29T08:20:55.380Z,98029.78
2022-07-29T08:24:18.423Z,98032.19
2022-07-29T08:27:43.070Z,98030.19
2022-07-29T08:30:46.478Z,98040.53
2022-07-29T08:33:49.274Z,98036.63
2022-07-29T08:36:52.013Z,98032.94
2022-07-29T08:39:54.562Z,98032.19
2022-07-29T08:42:57.422Z,98029.47
2022-07-29T08:46:00.011Z,98035.25
2022-07-29T08:49:04.020Z,98025.09
2022-07-29T08:52:07.203Z,98031.59
2022-07-29T08:55:11.492Z,98025.09
2022-07-29T08:58:15.963Z,98030.22
2022-07-29T09:01:35.533Z,98024.94
2022-07-29T09:04:41.990Z,98022.38
2022-07-29T09:07:46.360Z,98029.56
2022-07-29T09:10:54.415Z,98025.03
2022-07-29T09:14:00.079Z,98023.19
2022-07-29T09:17:11.380Z,98031.78
2022-07-29T09:20:19.512Z,98021.81
2022-07-29T09:23:23.058Z,98021.22
2022-07-29T09:26:33.615Z,98022.09
2022-07-29T09:29:36.591Z,98012.75
2022-07-29T09:32:59.623Z,98017.41
2022-07-29T09:36:09.499Z,98008.38
2022-07-29T09:39:17.867Z,98003.59
2022-07-29T09:42:35.349Z,98000.34
2022-07-29T09:45:44.873Z,98001.84
2022-07-29T09:49:08.048Z,97992.97
2022-07-29T09:52:14.617Z,97996.22
2022-07-29T09:55:19.785Z,97994.41
2022-07-29T09:58:26.614Z,97989.22
2022-07-29T10:01:30.403Z,97987.81
2022-07-29T10:04:44.587Z,97986.38
2022-07-29T10:07:53.887Z,97980.50
2022-07-29T10:11:14.046Z,97977.06
2022-07-29T10:14:19.891Z,97967.56
2022-07-29T10:17:25.078Z,97972.78
2022-07-29T10:20:29.781Z,97963.59
2022-07-29T10:23:46.170Z,97956.25
2022-07-29T10:26:52.084Z,97957.59
2022-07-29T10:29:55.810Z,97966.56
2022-07-29T10:33:29.133Z,97970.66
2022-07-29T10:36:41.484Z,97955.81
2022-07-29T10:40:30.130Z,97960.38
2022-07-29T10:43:38.038Z,97942.63
2022-07-29T10:46:44.808Z,97947.75
2022-07-29T10:50:02.496Z,97953.53
2022-07-29T10:53:08.858Z,97949.91
2022-07-29T10:56:32.668Z,97947.53
2022-07-29T10:59:36.171Z,97940.53
2022-07-29T11:02:44.763Z,97942.75
2022-07-29T11:05:55.740Z,97943.41
2022-07-29T11:09:34.929Z,97941.84
2022-07-29T11:12:40.693Z,97933.63
2022-07-29T11:15:57.793Z,97935.53
2022-07-29T11:19:16.278Z,97931.53
2022-07-29T11:22:36.820Z,97940.94
2022-07-29T11:25:50.612Z,97942.38
2022-07-29T11:28:55.676Z,97943.50
2022-07-29T11:32:18.166Z,97927.88
2022-07-29T11:38:49.616Z,97920.56
2022-07-29T11:41:52.785Z,97917.41
2022-07-29T11:45:41.149Z,97927.84
2022-07-29T11:48:33.146Z,97930.41
2022-07-29T11:51:46.447Z,97923.56
2022-07-29T11:55:09.867Z,97919.41
2022-07-29T11:58:16.006Z,97924.69
2022-07-29T12:01:20.319Z,97926.97
2022-07-29T12:04:25.161Z,97918.50
2022-07-29T12:07:34.584Z,97917.53
2022-07-29T12:10:39.148Z,97912.63
2022-07-29T12:13:41.935Z,97919.38
2022-07-29T12:16:47.308Z,97905.09
2022-07-29T12:19:50.993Z,97902.22
2022-07-29T12:22:55.300Z,97897.38
2022-07-29T12:26:00.001Z,97892.59
2022-07-29T12:29:11.222Z,97890.69
2022-07-29T12:32:19.822Z,97890.69
2022-07-29T12:35:25.288Z,97880.13
2022-07-29T12:38:28.247Z,97881.84
2022-07-29T12:41:31.050Z,97872.06
2022-07-29T12:44:50.727Z,97884.69
2022-07-29T12:47:53.811Z,97877.75
2022-07-29T12:51:02.621Z,97875.63
2022-07-29T12:54:12.008Z,97871.50
2022-07-29T12:57:20.225Z,97861.22
2022-07-29T13:00:25.168Z,97871.34
2022-07-29T13:03:27.897Z,97875.56
2022-07-29T13:06:33.090Z,97862.78
2022-07-29T13:09:46.720Z,97865.44
2022-07-29T13:13:11.300Z,97857.91
2022-07-29T13:16:13.132Z,97844.38
2022-07-29T13:19:15.093Z,97847.31
2022-07-29T13:22:19.543Z,97843.09
2022-07-29T13:25:26.488Z,97849.63
2022-07-29T13:28:28.290Z,97840.44
2022-07-29T13:31:30.284Z,97831.97
2022-07-29T13:34:32.181Z,97839.78
2022-07-29T13:37:36.199Z,97827.50
2022-07-29T13:40:38.027Z,97827.94
2022-07-29T13:43:40.320Z,97821.00
2022-07-29T13:46:42.239Z,97822.78
2022-07-29T13:49:44.123Z,97826.78
2022-07-29T13:52:46.089Z,97821.91
2022-07-29T13:55:48.297Z,97821.06
2022-07-29T13:58:50.743Z,97813.81
2022-07-29T14:01:52.875Z,97815.22
2022-07-29T14:04:55.606Z,97813.09
2022-07-29T14:07:57.732Z,97814.34
2022-07-29T14:10:59.670Z,97809.63
2022-07-29T14:14:01.961Z,97819.69
2022-07-29T14:17:04.550Z,97813.25
2022-07-29T14:20:07.430Z,97816.63
2022-07-29T14:23:13.499Z,97809.91
2022-07-29T14:26:21.690Z,97802.41
2022-07-29T14:29:37.473Z,97806.56
2022-07-29T14:32:39.879Z,97804.38
2022-07-29T14:35:41.777Z,97810.56
2022-07-29T14:38:43.826Z,97820.31
2022-07-29T14:41:45.640Z,97817.16
2022-07-29T14:44:48.969Z,97819.03
2022-07-29T14:47:56.449Z,97810.78
2022-07-29T14:51:04.565Z,97807.63
2022-07-29T14:54:07.054Z,97809.63
2022-07-29T14:57:09.907Z,97805.81
2022-07-29T15:00:12.682Z,97810.44
2022-07-29T15:03:22.921Z,97797.38
2022-07-29T15:06:26.580Z,97799.59
2022-07-29T15:09:28.498Z,97793.84
2022-07-29T15:12:30.517Z,97798.09
2022-07-29T15:15:32.547Z,97790.16
2022-07-29T15:18:34.386Z,97792.34
2022-07-29T15:21:36.462Z,97786.31
2022-07-29T15:24:49.848Z,97789.09
2022-07-29T15:27:52.759Z,97792.44
2022-07-29T15:30:55.970Z,97788.06
2022-07-29T15:34:02.401Z,97790.94
2022-07-29T15:37:07.380Z,97784.41
2022-07-29T15:40:10.062Z,97797.25
2022-07-29T15:43:12.808Z,97794.84
2022-07-29T15:46:34.830Z,97792.97
2022-07-29T15:49:48.091Z,97799.16
2022-07-29T15:52:51.306Z,97789.69
2022-07-29T15:55:53.405Z,97797.03
2022-07-29T15:58:55.474Z,97791.63
2022-07-29T16:01:57.552Z,97790.09
2022-07-29T16:04:59.435Z,97793.28
2022-07-29T16:08:01.627Z,97798.41
2022-07-29T16:11:03.679Z,97804.06
2022-07-29T16:14:05.690Z,97805.19
2022-07-29T16:17:14.535Z,97803.84
2022-07-29T16:20:17.263Z,97810.31
2022-07-29T16:23:19.379Z,97810.31
2022-07-29T16:26:24.437Z,97804.13
2022-07-29T16:29:26.356Z,97804.41
2022-07-29T16:32:28.715Z,97813.59
2022-07-29T16:35:39.892Z,97809.53
2022-07-29T16:38:47.296Z,97811.44
2022-07-29T16:41:49.756Z,97818.69
2022-07-29T16:44:51.826Z,97819.78
2022-07-29T16:48:00.055Z,97828.44
2022-07-29T16:51:02.543Z,97825.19
2022-07-29T16:54:04.538Z,97830.59
2022-07-29T16:57:06.630Z,97827.88
2022-07-29T17:00:09.314Z,97832.19
2022-07-29T17:03:11.302Z,97831.06
2022-07-29T17:06:15.507Z,97833.22
2022-07-29T17:09:17.395Z,97832.34
2022-07-29T17:12:20.092Z,97838.25
2022-07-29T17:15:22.230Z,97837.44
2022-07-29T17:18:24.120Z,97820.72
2022-07-29T17:21:29.284Z,97822.88
2022-07-29T17:24:31.246Z,97810.72
2022-07-29T17:27:33.362Z,97813.69
2022-07-29T17:30:39.672Z,97812.59
2022-07-29T17:33:41.637Z,97815.78
2022-07-29T17:36:43.918Z,97816.00
2022-07-29T17:39:48.576Z,97819.00
2022-07-29T17:42:51.321Z,97820.31
2022-07-29T17:45:55.867Z,97827.47
2022-07-29T17:49:01.593Z,97836.59
2022-07-29T17:52:03.970Z,97836.59
2022-07-29T17:55:10.859Z,97848.44
2022-07-29T17:58:13.190Z,97852.72
2022-07-29T18:01:16.325Z,97868.63
2022-07-29T18:04:21.178Z,97876.03
2022-07-29T18:07:24.617Z,97879.25
2022-07-29T18:10:27.000Z,97892.75
2022-07-29T18:13:29.240Z,97892.47
2022-07-29T18:16:31.326Z,97902.72
2022-07-29T18:19:33.659Z,97905.69
2022-07-29T18:22:36.239Z,97904.91
2022-07-29T18:25:39.327Z,97923.75
2022-07-29T18:28:41.474Z,97934.22
2022-07-29T18:31:46.001Z,97947.50
2022-07-29T18:34:49.098Z,97973.66
2022-07-29T18:38:01.498Z,97985.53
2022-07-29T18:41:04.899Z,97984.63
2022-07-29T18:44:07.042Z,97972.97
2022-07-29T18:47:11.947Z,97967.78
2022-07-29T18:50:16.715Z,97971.34
2022-07-29T18:53:20.183Z,97965.25
2022-07-29T18:56:22.773Z,97971.34
2022-07-29T18:59:25.168Z,97981.38
2022-07-29T19:02:30.145Z,97981.38
2022-07-29T19:05:32.682Z,97977.72
2022-07-29T19:08:37.403Z,97985.88
2022-07-29T19:11:40.883Z,97999.97
2022-07-29T19:14:44.162Z,97995.38
2022-07-29T19:17:46.876Z,97981.31
2022-07-29T19:20:49.474Z,97974.09
2022-07-29T19:24:01.529Z,97970.47
2022-07-29T19:27:09.711Z,97963.59
2022-07-29T19:30:12.027Z,97963.47
2022-07-29T19:33:17.800Z,97946.38
2022-07-29T19:36:20.009Z,97942.38
2022-07-29T19:39:34.724Z,97938.31
2022-07-29T19:42:37.967Z,97931.50
2022-07-29T19:45:40.304Z,97922.28
2022-07-29T19:48:42.730Z,97919.03
2022-07-29T19:51:44.999Z,97912.59
2022-07-29T19:54:46.912Z,97900.78
2022-07-29T19:57:49.345Z,97892.66
2022-07-29T20:00:51.955Z,97895.13
2022-07-29T20:03:54.555Z,97886.88
2022-07-29T20:07:01.729Z,97880.72
2022-07-29T20:10:05.217Z,97883.56
2022-07-29T20:13:07.241Z,97874.25
2022-07-29T20:16:09.710Z,97870.19
2022-07-29T20:19:12.306Z,97865.25
2022-07-29T20:22:14.722Z,97865.22
2022-07-29T20:25:23.943Z,97858.06
2022-07-29T20:28:26.248Z,97859.38
2022-07-29T20:31:30.828Z,97862.28
2022-07-29T20:34:33.651Z,97862.16
2022-07-29T20:37:51.983Z,97867.94
2022-07-29T20:40:59.586Z,97867.06
2022-07-29T20:44:03.712Z,97867.97
2022-07-29T20:47:06.074Z,97864.44
2022-07-29T20:50:10.319Z,97872.41
2022-07-29T20:53:12.631Z,97875.19
2022-07-29T20:56:14.802Z,97874.97
2022-07-29T20:59:17.761Z,97864.59
2022-07-29T21:02:19.923Z,97869.94
2022-07-29T21:05:21.970Z,97870.75
2022-07-29T21:08:24.505Z,97874.03
2022-07-29T21:11:43.547Z,97870.75
2022-07-29T21:14:50.155Z,97880.09
2022-07-29T21:18:00.008Z,97874.19
2022-07-29T21:21:04.311Z,97881.03
2022-07-29T21:24:08.037Z,97885.34
2022-07-29T21:27:38.189Z,97888.66
2022-07-29T21:30:40.572Z,97878.47
2022-07-29T21:33:45.031Z,97883.66
2022-07-29T21:36:48.690Z,97892.91
2022-07-29T21:39:51.337Z,97885.34
2022-07-29T21:42:53.531Z,97878.06
2022-07-29T21:45:57.072Z,97881.44
2022-07-29T21:49:03.848Z,97882.75
2022-07-29T21:52:06.205Z,97877.50
2022-07-29T21:55:11.426Z,97872.91
2022-07-29T21:58:15.672Z,97874.41
2022-07-29T22:01:17.756Z,97865.94
2022-07-29T22:04:19.794Z,97861.13
2022-07-29T22:07:22.139Z,97856.31
2022-07-29T22:10:26.009Z,97851.78
2022-07-29T22:13:27.977Z,97851.59
2022-07-29T22:16:30.444Z,97845.19
2022-07-29T22:19:32.368Z,97855.88
2022-07-29T22:22:34.611Z,97848.13
2022-07-29T22:25:36.650Z,97842.78
2022-07-29T22:28:38.449Z,97835.56
2022-07-29T22:31:42.653Z,97842.41
2022-07-29T22:34:44.460Z,97836.56
2022-07-29T22:37:46.703Z,97831.31
2022-07-29T22:40:50.605Z,97822.66
2022-07-29T22:43:52.929Z,97819.38
2022-07-29T22:46:55.992Z,97815.09
2022-07-29T22:49:57.857Z,97809.81
2022-07-29T22:53:00.007Z,97809.47
2022-07-29T22:56:02.910Z,97810.97
2022-07-29T22:59:04.802Z,97795.75
2022-07-29T23:02:06.656Z,97808.94
2022-07-29T23:05:09.494Z,97806.06
2022-07-29T23:08:11.723Z,97798.41
2022-07-29T23:11:13.917Z,97796.41
2022-07-29T23:14:16.725Z,97796.41
2022-07-29T23:17:18.607Z,97801.28
2022-07-29T23:20:20.778Z,97803.53
2022-07-29T23:23:22.652Z,97807.38
2022-07-29T23:26:24.673Z,97806.06
2022-07-29T23:29:26.829Z,97803.75
2022-07-29T23:32:28.674Z,97812.59
2022-07-29T23:35:30.705Z,97812.28
2022-07-29T23:38:32.837Z,97810.19
2022-07-29T23:41:35.647Z,97801.91
2022-07-29T23:44:37.555Z,97802.94
2022-07-29T23:47:40.538Z,97793.13
2022-07-29T23:50:44.321Z,97799.22
2022-07-29T23:53:53.718Z,97788.16
2022-07-29T23:56:58.185Z,97783.94
